sensor_id;sensor_type;location;lat;lon;timestamp;P1;durP1;ratioP1;P2;durP2;ratioP2
23952;SDS011;12163;49.316;6.092;2023-02-28T00:01:06;2.25;;;1.15;;
23952;SDS011;12163;49.316;6.092;2023-02-28T00:03:32;3.15;;;1.00;;
23952;SDS011;12163;49.316;6.092;2023-02-28T00:06:04;2.40;;;0.93;;
23952;SDS011;12163;49.316;6.092;2023-02-28T00:08:32;3.55;;;1.58;;
23952;SDS011;12163;49.316;6.092;2023-02-28T00:11:03;2.28;;;1.10;;
23952;SDS011;12163;49.316;6.092;2023-02-28T00:13:41;2.60;;;1.20;;
23952;SDS011;12163;49.316;6.092;2023-02-28T00:16:16;3.30;;;1.10;;
23952;SDS011;12163;49.316;6.092;2023-02-28T00:18:48;2.05;;;0.85;;
23952;SDS011;12163;49.316;6.092;2023-02-28T00:21:15;2.40;;;1.40;;
23952;SDS011;12163;49.316;6.092;2023-02-28T00:23:43;1.58;;;1.17;;
23952;SDS011;12163;49.316;6.092;2023-02-28T00:26:10;8.35;;;1.25;;
23952;SDS011;12163;49.316;6.092;2023-02-28T00:28:36;1.25;;;0.95;;
23952;SDS011;12163;49.316;6.092;2023-02-28T00:31:03;2.30;;;1.10;;
23952;SDS011;12163;49.316;6.092;2023-02-28T00:33:31;1.98;;;1.10;;
23952;SDS011;12163;49.316;6.092;2023-02-28T00:36:01;3.80;;;1.20;;
23952;SDS011;12163;49.316;6.092;2023-02-28T00:38:30;1.73;;;1.15;;
23952;SDS011;12163;49.316;6.092;2023-02-28T00:40:56;2.97;;;1.20;;
23952;SDS011;12163;49.316;6.092;2023-02-28T00:43:24;2.20;;;1.00;;
23952;SDS011;12163;49.316;6.092;2023-02-28T00:45:51;1.77;;;0.98;;
23952;SDS011;12163;49.316;6.092;2023-02-28T00:48:18;1.92;;;1.20;;
23952;SDS011;12163;49.316;6.092;2023-02-28T00:50:47;4.50;;;1.40;;
23952;SDS011;12163;49.316;6.092;2023-02-28T00:53:15;2.97;;;1.00;;
23952;SDS011;12163;49.316;6.092;2023-02-28T00:55:42;2.13;;;1.05;;
23952;SDS011;12163;49.316;6.092;2023-02-28T00:58:08;2.90;;;1.42;;
23952;SDS011;12163;49.316;6.092;2023-02-28T01:00:35;2.13;;;0.98;;
23952;SDS011;12163;49.316;6.092;2023-02-28T01:03:01;2.55;;;1.17;;
23952;SDS011;12163;49.316;6.092;2023-02-28T01:05:28;2.70;;;1.50;;
23952;SDS011;12163;49.316;6.092;2023-02-28T01:07:55;3.80;;;1.20;;
23952;SDS011;12163;49.316;6.092;2023-02-28T01:10:21;8.93;;;4.50;;
23952;SDS011;12163;49.316;6.092;2023-02-28T01:12:48;6.65;;;3.03;;
23952;SDS011;12163;49.316;6.092;2023-02-28T01:15:14;5.35;;;2.50;;
23952;SDS011;12163;49.316;6.092;2023-02-28T01:17:41;10.70;;;5.53;;
23952;SDS011;12163;49.316;6.092;2023-02-28T01:20:08;7.47;;;2.90;;
23952;SDS011;12163;49.316;6.092;2023-02-28T01:22:35;3.20;;;1.60;;
23952;SDS011;12163;49.316;6.092;2023-02-28T01:25:02;8.50;;;3.97;;
23952;SDS011;12163;49.316;6.092;2023-02-28T01:27:29;6.75;;;3.20;;
23952;SDS011;12163;49.316;6.092;2023-02-28T01:29:56;5.43;;;2.45;;
23952;SDS011;12163;49.316;6.092;2023-02-28T01:32:22;7.07;;;3.42;;
23952;SDS011;12163;49.316;6.092;2023-02-28T01:34:49;11.20;;;6.15;;
23952;SDS011;12163;49.316;6.092;2023-02-28T01:37:16;5.18;;;2.50;;
23952;SDS011;12163;49.316;6.092;2023-02-28T01:39:42;3.88;;;1.42;;
23952;SDS011;12163;49.316;6.092;2023-02-28T01:42:09;4.40;;;2.42;;
23952;SDS011;12163;49.316;6.092;2023-02-28T01:47:28;4.03;;;2.28;;
23952;SDS011;12163;49.316;6.092;2023-02-28T01:49:58;2.70;;;1.85;;
23952;SDS011;12163;49.316;6.092;2023-02-28T01:52:26;4.72;;;2.20;;
23952;SDS011;12163;49.316;6.092;2023-02-28T01:54:56;5.05;;;1.80;;
23952;SDS011;12163;49.316;6.092;2023-02-28T01:57:27;2.58;;;1.50;;
23952;SDS011;12163;49.316;6.092;2023-02-28T02:02:34;4.28;;;1.95;;
23952;SDS011;12163;49.316;6.092;2023-02-28T02:05:07;2.22;;;1.70;;
23952;SDS011;12163;49.316;6.092;2023-02-28T02:21:12;2.20;;;1.27;;
23952;SDS011;12163;49.316;6.092;2023-02-28T02:26:45;2.72;;;1.48;;
23952;SDS011;12163;49.316;6.092;2023-02-28T02:37:58;2.55;;;1.40;;
23952;SDS011;12163;49.316;6.092;2023-02-28T02:40:39;3.13;;;1.42;;
23952;SDS011;12163;49.316;6.092;2023-02-28T02:45:59;5.28;;;1.20;;
23952;SDS011;12163;49.316;6.092;2023-02-28T02:48:32;4.53;;;1.50;;
23952;SDS011;12163;49.316;6.092;2023-02-28T02:51:03;3.57;;;1.50;;
23952;SDS011;12163;49.316;6.092;2023-02-28T02:53:41;4.35;;;1.50;;
23952;SDS011;12163;49.316;6.092;2023-02-28T02:56:12;1.40;;;1.23;;
23952;SDS011;12163;49.316;6.092;2023-02-28T02:58:41;2.00;;;1.40;;
23952;SDS011;12163;49.316;6.092;2023-02-28T03:01:18;3.80;;;1.38;;
23952;SDS011;12163;49.316;6.092;2023-02-28T03:03:57;2.38;;;1.33;;
23952;SDS011;12163;49.316;6.092;2023-02-28T03:06:27;2.17;;;1.35;;
23952;SDS011;12163;49.316;6.092;2023-02-28T03:08:54;6.70;;;1.85;;
23952;SDS011;12163;49.316;6.092;2023-02-28T03:11:21;4.07;;;2.17;;
23952;SDS011;12163;49.316;6.092;2023-02-28T03:21:49;2.92;;;1.60;;
23952;SDS011;12163;49.316;6.092;2023-02-28T03:24:49;4.63;;;1.60;;
23952;SDS011;12163;49.316;6.092;2023-02-28T03:29:58;3.97;;;1.95;;
23952;SDS011;12163;49.316;6.092;2023-02-28T03:32:33;5.70;;;2.13;;
23952;SDS011;12163;49.316;6.092;2023-02-28T03:35:28;2.97;;;1.90;;
23952;SDS011;12163;49.316;6.092;2023-02-28T03:38:00;4.57;;;1.63;;
23952;SDS011;12163;49.316;6.092;2023-02-28T03:40:33;4.45;;;1.80;;
23952;SDS011;12163;49.316;6.092;2023-02-28T03:43:07;4.45;;;1.85;;
23952;SDS011;12163;49.316;6.092;2023-02-28T03:45:39;3.13;;;1.50;;
23952;SDS011;12163;49.316;6.092;2023-02-28T03:48:19;5.78;;;1.52;;
23952;SDS011;12163;49.316;6.092;2023-02-28T03:50:48;2.60;;;1.50;;
23952;SDS011;12163;49.316;6.092;2023-02-28T03:56:39;3.25;;;1.90;;
23952;SDS011;12163;49.316;6.092;2023-02-28T03:58:49;3.75;;;1.95;;
23952;SDS011;12163;49.316;6.092;2023-02-28T04:01:23;4.25;;;1.90;;
23952;SDS011;12163;49.316;6.092;2023-02-28T04:03:57;3.65;;;1.98;;
23952;SDS011;12163;49.316;6.092;2023-02-28T04:06:24;4.78;;;2.08;;
23952;SDS011;12163;49.316;6.092;2023-02-28T04:08:50;3.47;;;1.65;;
23952;SDS011;12163;49.316;6.092;2023-02-28T04:11:22;5.40;;;1.90;;
23952;SDS011;12163;49.316;6.092;2023-02-28T04:13:49;3.22;;;1.60;;
23952;SDS011;12163;49.316;6.092;2023-02-28T04:16:16;4.75;;;2.00;;
23952;SDS011;12163;49.316;6.092;2023-02-28T04:18:59;3.60;;;1.90;;
23952;SDS011;12163;49.316;6.092;2023-02-28T04:21:29;4.65;;;2.00;;
23952;SDS011;12163;49.316;6.092;2023-02-28T04:23:57;5.38;;;2.05;;
23952;SDS011;12163;49.316;6.092;2023-02-28T04:26:33;3.13;;;1.95;;
23952;SDS011;12163;49.316;6.092;2023-02-28T04:29:02;3.83;;;1.98;;
23952;SDS011;12163;49.316;6.092;2023-02-28T04:31:30;2.95;;;1.60;;
23952;SDS011;12163;49.316;6.092;2023-02-28T04:33:58;4.00;;;2.00;;
23952;SDS011;12163;49.316;6.092;2023-02-28T04:36:25;4.45;;;2.20;;
23952;SDS011;12163;49.316;6.092;2023-02-28T04:38:52;3.42;;;2.20;;
23952;SDS011;12163;49.316;6.092;2023-02-28T04:41:18;3.53;;;2.00;;
23952;SDS011;12163;49.316;6.092;2023-02-28T04:43:46;4.03;;;1.90;;
23952;SDS011;12163;49.316;6.092;2023-02-28T04:46:13;3.08;;;1.90;;
23952;SDS011;12163;49.316;6.092;2023-02-28T04:48:40;4.40;;;2.00;;
23952;SDS011;12163;49.316;6.092;2023-02-28T04:51:08;4.40;;;2.30;;
23952;SDS011;12163;49.316;6.092;2023-02-28T04:53:36;4.10;;;2.00;;
23952;SDS011;12163;49.316;6.092;2023-02-28T04:56:05;4.07;;;1.90;;
23952;SDS011;12163;49.316;6.092;2023-02-28T04:58:33;4.03;;;2.05;;
23952;SDS011;12163;49.316;6.092;2023-02-28T05:01:02;5.15;;;1.98;;
23952;SDS011;12163;49.316;6.092;2023-02-28T05:03:30;4.82;;;2.45;;
23952;SDS011;12163;49.316;6.092;2023-02-28T05:05:56;2.60;;;1.88;;
23952;SDS011;12163;49.316;6.092;2023-02-28T05:08:23;3.63;;;1.83;;
23952;SDS011;12163;49.316;6.092;2023-02-28T05:10:50;2.88;;;1.75;;
23952;SDS011;12163;49.316;6.092;2023-02-28T05:13:16;4.38;;;2.20;;
23952;SDS011;12163;49.316;6.092;2023-02-28T05:15:43;6.45;;;2.00;;
23952;SDS011;12163;49.316;6.092;2023-02-28T05:18:09;3.20;;;2.05;;
23952;SDS011;12163;49.316;6.092;2023-02-28T05:20:36;4.45;;;2.08;;
23952;SDS011;12163;49.316;6.092;2023-02-28T05:23:03;6.53;;;2.00;;
23952;SDS011;12163;49.316;6.092;2023-02-28T05:25:30;6.40;;;1.98;;
23952;SDS011;12163;49.316;6.092;2023-02-28T05:27:57;4.82;;;1.67;;
23952;SDS011;12163;49.316;6.092;2023-02-28T05:30:23;2.75;;;1.88;;
23952;SDS011;12163;49.316;6.092;2023-02-28T05:32:50;3.92;;;1.95;;
23952;SDS011;12163;49.316;6.092;2023-02-28T05:35:17;4.43;;;2.00;;
23952;SDS011;12163;49.316;6.092;2023-02-28T05:37:44;10.93;;;2.92;;
23952;SDS011;12163;49.316;6.092;2023-02-28T05:40:11;5.55;;;2.40;;
23952;SDS011;12163;49.316;6.092;2023-02-28T05:42:38;3.90;;;2.10;;
23952;SDS011;12163;49.316;6.092;2023-02-28T05:45:05;4.80;;;2.38;;
23952;SDS011;12163;49.316;6.092;2023-02-28T05:47:33;6.03;;;2.63;;
23952;SDS011;12163;49.316;6.092;2023-02-28T05:50:01;4.35;;;2.55;;
23952;SDS011;12163;49.316;6.092;2023-02-28T05:52:28;5.88;;;2.90;;
23952;SDS011;12163;49.316;6.092;2023-02-28T05:54:56;2.40;;;1.90;;
23952;SDS011;12163;49.316;6.092;2023-02-28T05:57:23;3.80;;;2.65;;
23952;SDS011;12163;49.316;6.092;2023-02-28T05:59:50;4.43;;;2.45;;
23952;SDS011;12163;49.316;6.092;2023-02-28T06:02:17;9.00;;;2.33;;
23952;SDS011;12163;49.316;6.092;2023-02-28T06:04:44;4.57;;;2.80;;
23952;SDS011;12163;49.316;6.092;2023-02-28T06:07:11;3.75;;;2.58;;
23952;SDS011;12163;49.316;6.092;2023-02-28T06:09:38;3.70;;;2.67;;
23952;SDS011;12163;49.316;6.092;2023-02-28T06:12:06;5.22;;;2.58;;
23952;SDS011;12163;49.316;6.092;2023-02-28T06:14:34;7.75;;;2.60;;
23952;SDS011;12163;49.316;6.092;2023-02-28T06:17:01;4.78;;;2.63;;
23952;SDS011;12163;49.316;6.092;2023-02-28T06:19:28;7.38;;;3.05;;
23952;SDS011;12163;49.316;6.092;2023-02-28T06:21:56;8.32;;;3.30;;
23952;SDS011;12163;49.316;6.092;2023-02-28T06:24:24;9.90;;;3.40;;
23952;SDS011;12163;49.316;6.092;2023-02-28T06:26:54;9.63;;;3.60;;
23952;SDS011;12163;49.316;6.092;2023-02-28T06:29:21;5.18;;;3.33;;
23952;SDS011;12163;49.316;6.092;2023-02-28T06:31:48;5.82;;;3.33;;
23952;SDS011;12163;49.316;6.092;2023-02-28T06:34:14;6.18;;;3.58;;
23952;SDS011;12163;49.316;6.092;2023-02-28T06:36:42;6.55;;;3.28;;
23952;SDS011;12163;49.316;6.092;2023-02-28T06:39:09;5.45;;;3.53;;
23952;SDS011;12163;49.316;6.092;2023-02-28T06:41:36;6.10;;;4.22;;
23952;SDS011;12163;49.316;6.092;2023-02-28T06:44:19;12.65;;;4.00;;
23952;SDS011;12163;49.316;6.092;2023-02-28T06:46:47;6.82;;;3.75;;
23952;SDS011;12163;49.316;6.092;2023-02-28T06:49:14;6.63;;;4.32;;
23952;SDS011;12163;49.316;6.092;2023-02-28T06:51:42;6.68;;;4.00;;
23952;SDS011;12163;49.316;6.092;2023-02-28T06:54:11;11.43;;;4.90;;
23952;SDS011;12163;49.316;6.092;2023-02-28T06:56:38;6.15;;;4.13;;
23952;SDS011;12163;49.316;6.092;2023-02-28T06:59:05;10.45;;;4.50;;
23952;SDS011;12163;49.316;6.092;2023-02-28T07:01:32;6.13;;;3.90;;
23952;SDS011;12163;49.316;6.092;2023-02-28T07:03:59;11.15;;;4.35;;
23952;SDS011;12163;49.316;6.092;2023-02-28T07:06:26;5.93;;;4.20;;
23952;SDS011;12163;49.316;6.092;2023-02-28T07:08:53;9.10;;;4.82;;
23952;SDS011;12163;49.316;6.092;2023-02-28T07:11:21;8.20;;;4.65;;
23952;SDS011;12163;49.316;6.092;2023-02-28T07:13:55;7.70;;;4.38;;
23952;SDS011;12163;49.316;6.092;2023-02-28T07:16:23;6.55;;;4.32;;
23952;SDS011;12163;49.316;6.092;2023-02-28T07:18:52;9.50;;;4.57;;
23952;SDS011;12163;49.316;6.092;2023-02-28T07:21:19;6.82;;;4.10;;
23952;SDS011;12163;49.316;6.092;2023-02-28T07:23:46;7.35;;;4.60;;
23952;SDS011;12163;49.316;6.092;2023-02-28T07:26:14;11.05;;;4.25;;
23952;SDS011;12163;49.316;6.092;2023-02-28T07:28:44;7.45;;;4.63;;
23952;SDS011;12163;49.316;6.092;2023-02-28T07:31:12;12.02;;;4.38;;
23952;SDS011;12163;49.316;6.092;2023-02-28T07:33:43;12.80;;;5.00;;
23952;SDS011;12163;49.316;6.092;2023-02-28T07:36:11;8.18;;;4.78;;
23952;SDS011;12163;49.316;6.092;2023-02-28T07:38:40;6.93;;;4.30;;
23952;SDS011;12163;49.316;6.092;2023-02-28T07:41:12;6.75;;;4.38;;
23952;SDS011;12163;49.316;6.092;2023-02-28T07:43:38;7.25;;;4.22;;
23952;SDS011;12163;49.316;6.092;2023-02-28T07:46:09;11.40;;;4.35;;
23952;SDS011;12163;49.316;6.092;2023-02-28T07:48:37;7.25;;;4.10;;
23952;SDS011;12163;49.316;6.092;2023-02-28T07:51:04;7.32;;;4.45;;
23952;SDS011;12163;49.316;6.092;2023-02-28T07:53:30;8.85;;;4.70;;
23952;SDS011;12163;49.316;6.092;2023-02-28T07:55:57;7.65;;;4.50;;
23952;SDS011;12163;49.316;6.092;2023-02-28T07:58:26;6.68;;;4.53;;
23952;SDS011;12163;49.316;6.092;2023-02-28T08:00:53;7.00;;;4.10;;
23952;SDS011;12163;49.316;6.092;2023-02-28T08:03:21;6.00;;;4.10;;
23952;SDS011;12163;49.316;6.092;2023-02-28T08:05:49;6.63;;;4.35;;
23952;SDS011;12163;49.316;6.092;2023-02-28T08:08:16;8.45;;;4.10;;
23952;SDS011;12163;49.316;6.092;2023-02-28T08:10:43;7.70;;;4.30;;
23952;SDS011;12163;49.316;6.092;2023-02-28T08:13:10;9.18;;;4.50;;
23952;SDS011;12163;49.316;6.092;2023-02-28T08:15:36;5.93;;;4.40;;
23952;SDS011;12163;49.316;6.092;2023-02-28T08:18:03;12.98;;;5.20;;
23952;SDS011;12163;49.316;6.092;2023-02-28T08:20:30;8.48;;;4.45;;
23952;SDS011;12163;49.316;6.092;2023-02-28T08:22:56;6.18;;;4.55;;
23952;SDS011;12163;49.316;6.092;2023-02-28T08:25:23;5.47;;;3.80;;
23952;SDS011;12163;49.316;6.092;2023-02-28T08:27:51;6.00;;;4.05;;
23952;SDS011;12163;49.316;6.092;2023-02-28T08:30:18;6.70;;;4.22;;
23952;SDS011;12163;49.316;6.092;2023-02-28T08:32:45;7.60;;;4.22;;
23952;SDS011;12163;49.316;6.092;2023-02-28T08:35:12;6.30;;;3.92;;
23952;SDS011;12163;49.316;6.092;2023-02-28T08:37:38;8.18;;;4.22;;
23952;SDS011;12163;49.316;6.092;2023-02-28T08:40:05;5.63;;;4.07;;
23952;SDS011;12163;49.316;6.092;2023-02-28T08:42:32;4.75;;;3.53;;
23952;SDS011;12163;49.316;6.092;2023-02-28T08:44:59;7.10;;;4.50;;
23952;SDS011;12163;49.316;6.092;2023-02-28T08:47:26;8.52;;;4.22;;
23952;SDS011;12163;49.316;6.092;2023-02-28T08:49:52;8.27;;;4.03;;
23952;SDS011;12163;49.316;6.092;2023-02-28T08:52:19;6.53;;;3.95;;
23952;SDS011;12163;49.316;6.092;2023-02-28T08:54:46;8.50;;;4.03;;
23952;SDS011;12163;49.316;6.092;2023-02-28T08:57:13;5.22;;;3.50;;
23952;SDS011;12163;49.316;6.092;2023-02-28T08:59:39;5.63;;;3.80;;
23952;SDS011;12163;49.316;6.092;2023-02-28T09:02:08;9.88;;;3.53;;
23952;SDS011;12163;49.316;6.092;2023-02-28T09:04:38;6.45;;;4.35;;
23952;SDS011;12163;49.316;6.092;2023-02-28T09:07:04;6.25;;;4.10;;
23952;SDS011;12163;49.316;6.092;2023-02-28T09:09:31;8.75;;;3.85;;
23952;SDS011;12163;49.316;6.092;2023-02-28T09:12:00;7.95;;;4.05;;
23952;SDS011;12163;49.316;6.092;2023-02-28T09:14:26;5.97;;;3.47;;
23952;SDS011;12163;49.316;6.092;2023-02-28T09:16:53;5.07;;;3.50;;
23952;SDS011;12163;49.316;6.092;2023-02-28T09:19:19;6.60;;;3.78;;
23952;SDS011;12163;49.316;6.092;2023-02-28T09:21:46;6.90;;;3.58;;
23952;SDS011;12163;49.316;6.092;2023-02-28T09:24:13;7.25;;;3.53;;
23952;SDS011;12163;49.316;6.092;2023-02-28T09:26:41;6.45;;;3.78;;
23952;SDS011;12163;49.316;6.092;2023-02-28T09:29:28;5.63;;;3.85;;
23952;SDS011;12163;49.316;6.092;2023-02-28T09:31:54;9.10;;;3.83;;
23952;SDS011;12163;49.316;6.092;2023-02-28T09:34:24;5.25;;;3.58;;
23952;SDS011;12163;49.316;6.092;2023-02-28T09:36:51;6.47;;;4.05;;
23952;SDS011;12163;49.316;6.092;2023-02-28T09:39:21;7.10;;;3.60;;
23952;SDS011;12163;49.316;6.092;2023-02-28T09:41:50;6.25;;;3.45;;
23952;SDS011;12163;49.316;6.092;2023-02-28T09:47:15;6.82;;;3.60;;
23952;SDS011;12163;49.316;6.092;2023-02-28T09:49:46;4.32;;;3.33;;
23952;SDS011;12163;49.316;6.092;2023-02-28T09:52:15;6.78;;;3.28;;
23952;SDS011;12163;49.316;6.092;2023-02-28T09:54:45;8.43;;;3.55;;
23952;SDS011;12163;49.316;6.092;2023-02-28T09:57:45;6.82;;;3.22;;
23952;SDS011;12163;49.316;6.092;2023-02-28T10:00:19;5.65;;;3.40;;
23952;SDS011;12163;49.316;6.092;2023-02-28T10:06:11;4.78;;;3.38;;
23952;SDS011;12163;49.316;6.092;2023-02-28T10:08:56;8.63;;;3.45;;
23952;SDS011;12163;49.316;6.092;2023-02-28T10:11:28;9.50;;;3.08;;
23952;SDS011;12163;49.316;6.092;2023-02-28T10:14:00;5.78;;;3.38;;
23952;SDS011;12163;49.316;6.092;2023-02-28T10:16:35;6.38;;;3.00;;
23952;SDS011;12163;49.316;6.092;2023-02-28T10:19:11;12.77;;;2.92;;
23952;SDS011;12163;49.316;6.092;2023-02-28T10:21:43;5.55;;;3.08;;
23952;SDS011;12163;49.316;6.092;2023-02-28T10:26:56;5.22;;;3.10;;
23952;SDS011;12163;49.316;6.092;2023-02-28T10:29:27;6.32;;;3.33;;
23952;SDS011;12163;49.316;6.092;2023-02-28T10:31:58;4.30;;;2.90;;
23952;SDS011;12163;49.316;6.092;2023-02-28T10:34:28;6.15;;;3.58;;
23952;SDS011;12163;49.316;6.092;2023-02-28T10:36:54;4.72;;;3.03;;
23952;SDS011;12163;49.316;6.092;2023-02-28T10:42:03;5.10;;;2.90;;
23952;SDS011;12163;49.316;6.092;2023-02-28T10:44:31;7.50;;;3.13;;
23952;SDS011;12163;49.316;6.092;2023-02-28T10:46:58;6.97;;;3.55;;
23952;SDS011;12163;49.316;6.092;2023-02-28T10:49:26;6.07;;;3.10;;
23952;SDS011;12163;49.316;6.092;2023-02-28T10:51:57;5.93;;;3.33;;
23952;SDS011;12163;49.316;6.092;2023-02-28T10:54:30;4.07;;;2.83;;
23952;SDS011;12163;49.316;6.092;2023-02-28T10:59:44;7.18;;;3.08;;
23952;SDS011;12163;49.316;6.092;2023-02-28T11:05:01;5.53;;;3.15;;
23952;SDS011;12163;49.316;6.092;2023-02-28T11:07:28;6.05;;;3.28;;
23952;SDS011;12163;49.316;6.092;2023-02-28T11:10:06;5.70;;;3.10;;
23952;SDS011;12163;49.316;6.092;2023-02-28T11:12:38;9.43;;;3.13;;
23952;SDS011;12163;49.316;6.092;2023-02-28T11:17:54;6.13;;;3.63;;
23952;SDS011;12163;49.316;6.092;2023-02-28T11:20:28;6.70;;;3.20;;
23952;SDS011;12163;49.316;6.092;2023-02-28T11:22:58;4.72;;;3.03;;
23952;SDS011;12163;49.316;6.092;2023-02-28T11:25:34;4.38;;;3.00;;
23952;SDS011;12163;49.316;6.092;2023-02-28T11:28:05;4.53;;;2.90;;
23952;SDS011;12163;49.316;6.092;2023-02-28T11:30:59;7.53;;;3.58;;
23952;SDS011;12163;49.316;6.092;2023-02-28T11:33:29;9.48;;;3.95;;
23952;SDS011;12163;49.316;6.092;2023-02-28T11:36:00;8.95;;;3.15;;
23952;SDS011;12163;49.316;6.092;2023-02-28T11:38:31;4.93;;;3.00;;
23952;SDS011;12163;49.316;6.092;2023-02-28T11:46:23;5.88;;;2.72;;
23952;SDS011;12163;49.316;6.092;2023-02-28T11:59:58;6.20;;;3.08;;
23952;SDS011;12163;49.316;6.092;2023-02-28T12:05:45;7.07;;;3.13;;
23952;SDS011;12163;49.316;6.092;2023-02-28T12:13:21;5.88;;;3.28;;
23952;SDS011;12163;49.316;6.092;2023-02-28T12:21:10;6.75;;;3.53;;
23952;SDS011;12163;49.316;6.092;2023-02-28T12:26:46;13.13;;;4.28;;
23952;SDS011;12163;49.316;6.092;2023-02-28T12:29:26;8.48;;;3.70;;
23952;SDS011;12163;49.316;6.092;2023-02-28T12:32:08;9.77;;;4.35;;
23952;SDS011;12163;49.316;6.092;2023-02-28T12:34:49;8.70;;;4.00;;
23952;SDS011;12163;49.316;6.092;2023-02-28T12:37:22;7.13;;;4.32;;
23952;SDS011;12163;49.316;6.092;2023-02-28T12:40:13;14.38;;;4.90;;
23952;SDS011;12163;49.316;6.092;2023-02-28T12:42:46;6.70;;;4.10;;
23952;SDS011;12163;49.316;6.092;2023-02-28T12:45:18;9.13;;;4.30;;
23952;SDS011;12163;49.316;6.092;2023-02-28T12:47:52;8.65;;;3.50;;
23952;SDS011;12163;49.316;6.092;2023-02-28T12:50:25;8.23;;;4.15;;
23952;SDS011;12163;49.316;6.092;2023-02-28T12:58:41;8.70;;;4.20;;
23952;SDS011;12163;49.316;6.092;2023-02-28T13:09:39;8.30;;;4.10;;
23952;SDS011;12163;49.316;6.092;2023-02-28T13:12:15;8.52;;;4.68;;
23952;SDS011;12163;49.316;6.092;2023-02-28T13:14:42;7.00;;;4.30;;
23952;SDS011;12163;49.316;6.092;2023-02-28T13:17:11;11.85;;;4.60;;
23952;SDS011;12163;49.316;6.092;2023-02-28T13:22:37;8.63;;;4.32;;
23952;SDS011;12163;49.316;6.092;2023-02-28T13:27:54;7.53;;;4.55;;
23952;SDS011;12163;49.316;6.092;2023-02-28T14:00:00;20.67;;;11.57;;
23952;SDS011;12163;49.316;6.092;2023-02-28T14:02:45;8.60;;;4.72;;
23952;SDS011;12163;49.316;6.092;2023-02-28T14:05:15;8.60;;;4.60;;
23952;SDS011;12163;49.316;6.092;2023-02-28T14:07:48;7.60;;;5.43;;
23952;SDS011;12163;49.316;6.092;2023-02-28T14:10:21;15.55;;;8.00;;
23952;SDS011;12163;49.316;6.092;2023-02-28T14:18:03;7.60;;;4.90;;
23952;SDS011;12163;49.316;6.092;2023-02-28T14:20:37;11.40;;;5.00;;
23952;SDS011;12163;49.316;6.092;2023-02-28T14:23:10;10.38;;;5.80;;
23952;SDS011;12163;49.316;6.092;2023-02-28T14:31:04;10.15;;;6.45;;
23952;SDS011;12163;49.316;6.092;2023-02-28T14:36:35;11.90;;;5.80;;
23952;SDS011;12163;49.316;6.092;2023-02-28T14:39:16;9.85;;;5.80;;
23952;SDS011;12163;49.316;6.092;2023-02-28T14:41:46;10.07;;;4.40;;
23952;SDS011;12163;49.316;6.092;2023-02-28T14:44:23;8.35;;;4.60;;
23952;SDS011;12163;49.316;6.092;2023-02-28T14:46:52;42.60;;;13.68;;
23952;SDS011;12163;49.316;6.092;2023-02-28T14:49:23;9.55;;;6.28;;
23952;SDS011;12163;49.316;6.092;2023-02-28T14:54:36;11.65;;;8.23;;
23952;SDS011;12163;49.316;6.092;2023-02-28T14:57:04;9.63;;;6.60;;
23952;SDS011;12163;49.316;6.092;2023-02-28T14:59:35;10.40;;;6.55;;
23952;SDS011;12163;49.316;6.092;2023-02-28T15:02:15;15.63;;;8.60;;
23952;SDS011;12163;49.316;6.092;2023-02-28T15:04:53;9.70;;;6.15;;
23952;SDS011;12163;49.316;6.092;2023-02-28T15:07:23;12.95;;;7.90;;
23952;SDS011;12163;49.316;6.092;2023-02-28T15:12:58;19.58;;;10.90;;
23952;SDS011;12163;49.316;6.092;2023-02-28T15:15:35;19.17;;;9.32;;
23952;SDS011;12163;49.316;6.092;2023-02-28T15:21:21;12.38;;;7.70;;
23952;SDS011;12163;49.316;6.092;2023-02-28T15:23:54;7.65;;;5.22;;
23952;SDS011;12163;49.316;6.092;2023-02-28T15:26:27;8.30;;;5.80;;
23952;SDS011;12163;49.316;6.092;2023-02-28T15:29:04;10.52;;;6.65;;
23952;SDS011;12163;49.316;6.092;2023-02-28T15:31:34;8.90;;;4.50;;
23952;SDS011;12163;49.316;6.092;2023-02-28T15:34:26;7.43;;;4.82;;
23952;SDS011;12163;49.316;6.092;2023-02-28T15:40:26;8.30;;;4.60;;
23952;SDS011;12163;49.316;6.092;2023-02-28T15:43:03;8.30;;;4.50;;
23952;SDS011;12163;49.316;6.092;2023-02-28T15:45:47;5.82;;;4.60;;
23952;SDS011;12163;49.316;6.092;2023-02-28T15:48:20;9.23;;;4.82;;
23952;SDS011;12163;49.316;6.092;2023-02-28T15:54:21;7.75;;;5.35;;
23952;SDS011;12163;49.316;6.092;2023-02-28T15:56:29;7.43;;;4.75;;
23952;SDS011;12163;49.316;6.092;2023-02-28T15:58:59;6.55;;;5.13;;
23952;SDS011;12163;49.316;6.092;2023-02-28T16:01:38;10.43;;;5.35;;
23952;SDS011;12163;49.316;6.092;2023-02-28T16:04:06;7.50;;;4.88;;
23952;SDS011;12163;49.316;6.092;2023-02-28T16:09:14;10.77;;;6.22;;
23952;SDS011;12163;49.316;6.092;2023-02-28T16:11:49;11.00;;;6.05;;
23952;SDS011;12163;49.316;6.092;2023-02-28T16:14:19;9.63;;;6.10;;
23952;SDS011;12163;49.316;6.092;2023-02-28T16:16:54;9.48;;;6.22;;
23952;SDS011;12163;49.316;6.092;2023-02-28T16:19:23;12.25;;;6.13;;
23952;SDS011;12163;49.316;6.092;2023-02-28T16:21:50;11.35;;;6.47;;
23952;SDS011;12163;49.316;6.092;2023-02-28T16:24:17;10.30;;;7.13;;
23952;SDS011;12163;49.316;6.092;2023-02-28T16:26:45;9.00;;;6.00;;
23952;SDS011;12163;49.316;6.092;2023-02-28T16:29:16;10.10;;;6.22;;
23952;SDS011;12163;49.316;6.092;2023-02-28T16:31:50;11.82;;;7.57;;
23952;SDS011;12163;49.316;6.092;2023-02-28T16:34:17;14.10;;;9.80;;
23952;SDS011;12163;49.316;6.092;2023-02-28T16:36:44;12.20;;;6.72;;
23952;SDS011;12163;49.316;6.092;2023-02-28T16:39:13;11.43;;;6.30;;
23952;SDS011;12163;49.316;6.092;2023-02-28T16:41:43;13.07;;;7.13;;
23952;SDS011;12163;49.316;6.092;2023-02-28T16:44:13;10.48;;;7.10;;
23952;SDS011;12163;49.316;6.092;2023-02-28T16:47:00;9.80;;;6.70;;
23952;SDS011;12163;49.316;6.092;2023-02-28T16:49:28;9.93;;;6.50;;
23952;SDS011;12163;49.316;6.092;2023-02-28T16:51:55;11.55;;;6.95;;
23952;SDS011;12163;49.316;6.092;2023-02-28T16:54:22;11.35;;;6.88;;
23952;SDS011;12163;49.316;6.092;2023-02-28T16:56:49;11.25;;;6.80;;
23952;SDS011;12163;49.316;6.092;2023-02-28T16:59:18;9.73;;;6.35;;
23952;SDS011;12163;49.316;6.092;2023-02-28T17:01:47;14.80;;;7.25;;
23952;SDS011;12163;49.316;6.092;2023-02-28T17:04:14;17.27;;;7.07;;
23952;SDS011;12163;49.316;6.092;2023-02-28T17:06:41;12.60;;;7.07;;
23952;SDS011;12163;49.316;6.092;2023-02-28T17:09:21;13.85;;;7.18;;
23952;SDS011;12163;49.316;6.092;2023-02-28T17:11:56;14.20;;;7.60;;
23952;SDS011;12163;49.316;6.092;2023-02-28T17:14:22;12.80;;;7.32;;
23952;SDS011;12163;49.316;6.092;2023-02-28T17:16:49;21.73;;;8.23;;
23952;SDS011;12163;49.316;6.092;2023-02-28T17:19:17;17.65;;;9.63;;
23952;SDS011;12163;49.316;6.092;2023-02-28T17:21:44;21.77;;;12.07;;
23952;SDS011;12163;49.316;6.092;2023-02-28T17:24:11;21.50;;;11.32;;
23952;SDS011;12163;49.316;6.092;2023-02-28T17:26:55;17.70;;;10.73;;
23952;SDS011;12163;49.316;6.092;2023-02-28T17:29:22;22.60;;;10.68;;
23952;SDS011;12163;49.316;6.092;2023-02-28T17:31:50;21.40;;;10.98;;
23952;SDS011;12163;49.316;6.092;2023-02-28T17:34:17;17.08;;;9.15;;
23952;SDS011;12163;49.316;6.092;2023-02-28T17:36:48;18.45;;;8.20;;
23952;SDS011;12163;49.316;6.092;2023-02-28T17:39:17;15.88;;;9.25;;
23952;SDS011;12163;49.316;6.092;2023-02-28T17:41:54;18.88;;;10.55;;
23952;SDS011;12163;49.316;6.092;2023-02-28T17:44:21;12.93;;;8.32;;
23952;SDS011;12163;49.316;6.092;2023-02-28T17:46:50;17.80;;;8.45;;
23952;SDS011;12163;49.316;6.092;2023-02-28T17:49:17;14.88;;;7.28;;
23952;SDS011;12163;49.316;6.092;2023-02-28T17:51:44;11.40;;;7.43;;
23952;SDS011;12163;49.316;6.092;2023-02-28T17:54:10;13.75;;;7.80;;
23952;SDS011;12163;49.316;6.092;2023-02-28T17:56:37;10.52;;;7.07;;
23952;SDS011;12163;49.316;6.092;2023-02-28T17:59:04;27.27;;;13.82;;
23952;SDS011;12163;49.316;6.092;2023-02-28T18:01:30;20.35;;;11.45;;
23952;SDS011;12163;49.316;6.092;2023-02-28T18:03:57;18.50;;;12.32;;